Time;durP1;ratioP1;P1;durP2;ratioP2;P2;SDS_P1;SDS_P2;PMS_P1;PMS_P2;Temp;Humidity;BMP_temperature;BMP_pressure;BME280_temperature;BME280_humidity;BME280_pressure;Samples;Min_cycle;Max_cycle;Signal;HPM_P1;HPM_P2
2022/10/12 00:02:02;;;;;;;5.85;2.08;;;8.20;91.50;;;;;;4972061;28;20526;-69
2022/10/12 00:04:28;;;;;;;4.32;2.05;;;8.20;91.30;;;;;;4972763;28;20644;-67
2022/10/12 00:06:54;;;;;;;7.88;1.85;;;8.20;91.50;;;;;;4978218;28;20053;-68
2022/10/12 00:09:20;;;;;;;4.43;2.33;;;8.20;92.00;;;;;;4977637;28;20125;-68
2022/10/12 00:11:45;;;;;;;4.10;2.53;;;8.30;92.60;;;;;;4978266;28;20030;-68
2022/10/12 00:14:11;;;;;;;7.50;2.47;;;8.30;93.10;;;;;;4967141;28;20117;-68
2022/10/12 00:16:37;;;;;;;3.08;1.80;;;8.40;93.50;;;;;;4977122;28;20038;-69
2022/10/12 00:19:02;;;;;;;6.30;1.98;;;8.50;93.80;;;;;;4973062;28;20031;-69
2022/10/12 00:21:29;;;;;;;4.32;2.30;;;8.50;94.00;;;;;;4967711;28;20565;-68
2022/10/12 00:23:56;;;;;;;3.83;1.67;;;8.60;94.10;;;;;;4972632;28;20034;-68
2022/10/12 00:26:23;;;;;;;6.28;1.98;;;8.60;94.00;;;;;;4970304;28;20086;-68
2022/10/12 00:28:55;;;;;;;2.42;1.65;;;8.60;93.80;;;;;;4973246;28;20101;-68
2022/10/12 00:31:21;;;;;;;3.13;1.90;;;8.60;93.30;;;;;;4973851;28;20712;-68
2022/10/12 00:33:47;;;;;;;4.03;2.08;;;8.60;93.00;;;;;;4977439;28;20026;-69
2022/10/12 00:36:24;;;;;;;4.18;1.45;;;8.60;92.80;;;;;;4967731;28;20039;-69
2022/10/12 00:38:53;;;;;;;3.00;1.92;;;8.50;92.60;;;;;;4973882;28;20023;-69
2022/10/12 00:41:21;;;;;;;6.07;2.10;;;8.50;92.60;;;;;;4969106;28;20503;-68
2022/10/12 00:43:48;;;;;;;3.95;1.80;;;8.50;92.60;;;;;;4968064;28;20113;-69
2022/10/12 00:46:40;;;;;;;4.80;2.55;;;8.40;92.40;;;;;;4975830;28;20062;-69
2022/10/12 00:49:19;;;;;;;4.70;2.30;;;8.40;92.10;;;;;;4978386;28;20054;-69
2022/10/12 00:51:50;;;;;;;2.75;1.98;;;8.40;91.80;;;;;;4970667;28;20058;-68
2022/10/12 00:54:19;;;;;;;5.93;1.70;;;8.30;91.50;;;;;;4972062;28;20831;-68
2022/10/12 00:56:47;;;;;;;5.57;1.90;;;8.30;91.50;;;;;;4967628;28;20486;-68
2022/10/12 00:59:19;;;;;;;7.90;1.90;;;8.20;91.60;;;;;;4968694;28;20039;-69
2022/10/12 01:01:45;;;;;;;2.47;1.77;;;8.20;91.90;;;;;;4972282;28;20806;-68
2022/10/12 01:04:11;;;;;;;3.55;1.90;;;8.20;92.00;;;;;;4965080;28;20027;-68
2022/10/12 01:06:37;;;;;;;2.97;1.50;;;8.10;91.70;;;;;;4971927;28;20027;-68
2022/10/12 01:09:03;;;;;;;3.20;1.85;;;8.10;91.40;;;;;;4975804;28;20053;-68
2022/10/12 01:11:29;;;;;;;5.45;2.40;;;8.00;90.60;;;;;;4972918;28;20161;-69
2022/10/12 01:13:55;;;;;;;3.95;1.70;;;7.90;90.20;;;;;;4970767;28;20516;-69
2022/10/12 01:16:43;;;;;;;2.67;1.88;;;7.80;90.10;;;;;;4971186;28;20041;-70
2022/10/12 01:19:40;;;;;;;4.53;1.80;;;7.80;90.20;;;;;;4965689;28;20070;-68
2022/10/12 01:22:15;;;;;;;6.28;2.10;;;7.80;90.30;;;;;;4972065;28;20853;-69
2022/10/12 01:24:54;;;;;;;3.70;1.70;;;7.70;90.50;;;;;;4969226;28;20034;-68
2022/10/12 01:27:32;;;;;;;3.03;1.52;;;7.60;90.90;;;;;;4973718;28;20027;-69
2022/10/12 01:30:06;;;;;;;3.67;1.50;;;7.60;91.40;;;;;;4973061;28;20038;-68
2022/10/12 01:32:41;;;;;;;5.38;1.90;;;7.60;91.40;;;;;;4969399;28;20501;-68
2022/10/12 01:35:29;;;;;;;3.85;1.92;;;7.50;91.30;;;;;;4969546;28;20031;-68
2022/10/12 01:38:44;;;;;;;6.75;2.03;;;7.50;91.30;;;;;;4972323;28;20045;-68
2022/10/12 01:41:10;;;;;;;3.63;2.22;;;7.50;91.20;;;;;;4919194;28;20043;-68
2022/10/12 01:43:39;;;;;;;5.80;1.60;;;7.50;91.40;;;;;;4974021;28;20038;-69
2022/10/12 01:46:14;;;;;;;6.10;1.92;;;7.50;91.30;;;;;;4974817;28;20108;-69
2022/10/12 01:48:40;;;;;;;4.82;1.88;;;7.50;91.40;;;;;;4969022;28;20026;-69
2022/10/12 01:51:09;;;;;;;3.08;1.73;;;7.40;91.50;;;;;;4970399;28;20043;-69
2022/10/12 01:53:47;;;;;;;5.93;1.52;;;7.50;91.50;;;;;;4968845;28;20129;-68
2022/10/12 01:56:25;;;;;;;2.50;1.35;;;7.40;91.50;;;;;;4964401;28;20039;-69
2022/10/12 01:59:04;;;;;;;4.20;1.50;;;7.50;91.60;;;;;;4975769;28;20034;-68
2022/10/12 02:01:50;;;;;;;2.25;1.65;;;7.40;91.70;;;;;;4967424;28;20027;-68
2022/10/12 02:04:38;;;;;;;3.42;1.60;;;7.40;91.70;;;;;;4966477;28;20101;-68
2022/10/12 02:07:09;;;;;;;2.92;1.60;;;7.40;91.70;;;;;;4973493;28;20050;-69
2022/10/12 02:09:37;;;;;;;4.45;2.58;;;7.40;91.80;;;;;;4967593;28;20389;-68
2022/10/12 02:12:12;;;;;;;3.83;1.95;;;7.40;91.70;;;;;;4967697;28;20050;-68
2022/10/12 02:14:45;;;;;;;4.93;1.88;;;7.30;91.40;;;;;;4969634;28;20376;-68
2022/10/12 02:17:14;;;;;;;5.13;1.48;;;7.40;90.50;;;;;;4963991;28;20034;-68
2022/10/12 02:19:46;;;;;;;3.90;1.63;;;7.30;90.40;;;;;;4971523;28;20035;-68
2022/10/12 02:22:13;;;;;;;3.90;1.90;;;7.30;90.70;;;;;;4970876;28;20038;-69
2022/10/12 02:24:42;;;;;;;4.93;1.60;;;7.20;91.20;;;;;;4974571;28;20118;-68
2022/10/12 02:27:11;;;;;;;2.55;1.73;;;7.20;91.70;;;;;;4970897;28;20137;-69
2022/10/12 02:29:40;;;;;;;2.85;1.73;;;7.20;92.60;;;;;;4970681;28;20065;-68
2022/10/12 02:32:27;;;;;;;3.85;2.00;;;7.20;92.50;;;;;;4965205;28;20042;-69
2022/10/12 02:35:11;;;;;;;4.88;2.03;;;7.20;92.60;;;;;;4969988;28;20069;-69
2022/10/12 02:37:45;;;;;;;3.58;1.73;;;7.20;92.50;;;;;;4969472;28;20471;-69
2022/10/12 02:40:35;;;;;;;4.88;1.85;;;7.30;92.40;;;;;;4971248;28;20066;-68
2022/10/12 02:43:35;;;;;;;4.82;1.70;;;7.20;92.20;;;;;;4971575;28;20042;-68
2022/10/12 02:46:04;;;;;;;3.55;1.65;;;7.20;92.20;;;;;;4970309;28;20118;-68
2022/10/12 02:48:30;;;;;;;5.85;1.77;;;7.20;91.90;;;;;;4966718;28;20398;-70
2022/10/12 02:50:57;;;;;;;4.00;1.67;;;7.10;91.60;;;;;;4970812;28;20030;-69
2022/10/12 02:53:26;;;;;;;3.42;2.00;;;7.10;91.80;;;;;;4968839;28;20825;-69
2022/10/12 02:55:58;;;;;;;5.45;1.77;;;7.10;91.30;;;;;;4972944;28;20031;-69
2022/10/12 02:58:24;;;;;;;4.28;1.67;;;7.00;91.30;;;;;;4974035;28;20035;-69
2022/10/12 03:00:50;;;;;;;7.00;2.28;;;7.00;91.20;;;;;;4980078;28;20042;-69
2022/10/12 03:03:16;;;;;;;2.40;1.70;;;7.00;91.00;;;;;;4972172;28;20452;-69
2022/10/12 03:05:42;;;;;;;5.13;1.88;;;7.00;90.60;;;;;;4977811;28;20034;-69
2022/10/12 03:08:08;;;;;;;4.55;1.80;;;6.90;90.50;;;;;;4967951;28;20066;-69
2022/10/12 03:10:33;;;;;;;4.80;1.63;;;6.90;90.80;;;;;;4971646;28;20030;-68
2022/10/12 03:12:59;;;;;;;5.00;1.98;;;6.80;91.10;;;;;;4972361;28;20562;-69
2022/10/12 03:15:25;;;;;;;4.40;1.83;;;6.80;91.40;;;;;;4967395;28;20031;-69
2022/10/12 03:17:50;;;;;;;2.67;1.95;;;6.70;91.50;;;;;;4976996;28;20094;-69
2022/10/12 03:20:16;;;;;;;4.25;1.80;;;6.70;91.70;;;;;;4977449;28;20089;-69
2022/10/12 03:22:42;;;;;;;7.13;1.90;;;6.80;91.30;;;;;;4969898;28;20038;-69
2022/10/12 03:25:08;;;;;;;4.47;1.60;;;6.70;91.20;;;;;;4970135;28;20419;-68
2022/10/12 03:27:33;;;;;;;5.18;1.67;;;6.70;91.60;;;;;;4974640;28;20026;-69
2022/10/12 03:29:59;;;;;;;4.93;2.00;;;6.70;92.00;;;;;;4967185;28;20049;-69
2022/10/12 03:32:25;;;;;;;5.75;1.75;;;6.70;92.60;;;;;;4971475;28;20033;-72
2022/10/12 03:34:50;;;;;;;4.85;1.88;;;6.70;92.70;;;;;;4972561;28;20041;-68
2022/10/12 03:37:16;;;;;;;4.05;1.70;;;6.70;92.40;;;;;;4967410;28;20041;-68
2022/10/12 03:39:42;;;;;;;3.58;1.70;;;6.70;92.30;;;;;;4970780;28;20513;-68
2022/10/12 03:42:08;;;;;;;7.72;1.88;;;6.70;92.00;;;;;;4975293;28;20560;-68
2022/10/12 03:44:33;;;;;;;9.73;1.77;;;6.80;91.50;;;;;;4966767;28;20039;-68
2022/10/12 03:46:59;;;;;;;5.90;1.75;;;6.70;91.60;;;;;;4970162;28;20035;-69
2022/10/12 03:49:25;;;;;;;3.00;1.60;;;6.70;92.10;;;;;;4973513;28;20046;-69
2022/10/12 03:51:50;;;;;;;1.73;1.42;;;6.70;92.40;;;;;;4966924;28;20026;-68
2022/10/12 03:54:16;;;;;;;3.47;1.80;;;6.70;92.30;;;;;;4971278;28;20058;-68
2022/10/12 03:56:42;;;;;;;5.07;2.00;;;6.70;92.10;;;;;;4974534;28;20033;-68
2022/10/12 03:59:08;;;;;;;5.95;1.92;;;6.70;91.90;;;;;;4969339;28;20861;-69
2022/10/12 04:01:33;;;;;;;4.72;1.75;;;6.70;91.80;;;;;;4955049;28;20038;-68
2022/10/12 04:03:59;;;;;;;1.80;1.38;;;6.70;91.80;;;;;;4972561;28;20612;-68
2022/10/12 04:06:25;;;;;;;5.50;1.88;;;6.70;92.10;;;;;;4968505;28;20370;-70
2022/10/12 04:08:51;;;;;;;5.05;1.90;;;6.70;92.70;;;;;;4969766;28;20072;-71
2022/10/12 04:11:17;;;;;;;3.33;1.63;;;6.70;93.10;;;;;;4971863;28;20034;-70
2022/10/12 04:13:43;;;;;;;9.18;2.03;;;6.80;93.30;;;;;;4966265;28;20029;-70
2022/10/12 04:16:09;;;;;;;5.38;1.92;;;6.90;93.50;;;;;;4973253;28;20039;-70
2022/10/12 04:18:35;;;;;;;5.28;2.83;;;6.90;93.70;;;;;;4975414;28;20088;-68
2022/10/12 04:21:01;;;;;;;4.55;2.13;;;6.90;93.80;;;;;;4967274;28;20042;-68
2022/10/12 04:23:27;;;;;;;3.85;1.83;;;7.00;92.90;;;;;;4969693;28;20033;-68
2022/10/12 04:25:53;;;;;;;4.57;2.20;;;6.90;92.20;;;;;;4969851;28;20038;-70
2022/10/12 04:28:19;;;;;;;5.43;1.90;;;6.90;91.80;;;;;;4972423;28;20087;-70
2022/10/12 04:30:44;;;;;;;3.33;1.75;;;6.80;91.90;;;;;;4977075;28;20565;-70
2022/10/12 04:33:10;;;;;;;3.85;1.63;;;6.80;92.30;;;;;;4979323;28;20030;-70
2022/10/12 04:35:36;;;;;;;7.18;2.38;;;6.80;92.60;;;;;;4981851;28;20030;-70
2022/10/12 04:38:02;;;;;;;5.20;1.95;;;6.80;92.40;;;;;;4978373;28;20034;-70
2022/10/12 04:40:28;;;;;;;3.05;1.70;;;6.80;92.10;;;;;;4976717;28;20077;-70
2022/10/12 04:42:55;;;;;;;2.30;1.48;;;6.80;92.10;;;;;;4977386;28;20030;-70
2022/10/12 04:45:21;;;;;;;3.42;1.70;;;6.70;92.20;;;;;;4978972;28;20041;-70
2022/10/12 04:47:47;;;;;;;2.55;1.45;;;6.70;92.30;;;;;;4975042;28;20027;-70
2022/10/12 04:50:13;;;;;;;3.22;1.60;;;6.70;92.30;;;;;;4972998;28;20054;-70
2022/10/12 04:52:39;;;;;;;5.85;1.83;;;6.70;92.10;;;;;;4978931;28;20037;-70
2022/10/12 04:55:05;;;;;;;11.90;2.30;;;6.70;92.10;;;;;;4978681;28;20038;-69
2022/10/12 04:57:31;;;;;;;5.05;1.90;;;6.70;91.80;;;;;;4975343;28;20054;-70
2022/10/12 04:59:57;;;;;;;4.78;1.52;;;6.70;91.70;;;;;;4973274;28;20173;-70
2022/10/12 05:02:22;;;;;;;1.40;1.10;;;6.70;91.90;;;;;;4977968;28;20038;-70
2022/10/12 05:04:48;;;;;;;3.08;1.58;;;6.70;92.30;;;;;;4974887;28;20469;-70
2022/10/12 05:07:14;;;;;;;4.28;1.55;;;6.70;92.30;;;;;;4979043;28;20030;-70
2022/10/12 05:09:40;;;;;;;12.52;1.70;;;6.60;91.80;;;;;;4978016;28;20041;-70
2022/10/12 05:12:06;;;;;;;3.75;1.70;;;6.60;91.60;;;;;;4977102;28;20034;-70
2022/10/12 05:14:32;;;;;;;3.95;1.80;;;6.60;91.20;;;;;;4974769;28;20033;-70
2022/10/12 05:16:57;;;;;;;11.98;1.77;;;6.50;91.20;;;;;;4975462;28;20039;-70
2022/10/12 05:19:23;;;;;;;1.83;1.45;;;6.50;91.30;;;;;;4969378;28;20030;-70
2022/10/12 05:21:49;;;;;;;8.45;2.47;;;6.40;91.40;;;;;;4970259;28;20061;-70
2022/10/12 05:24:14;;;;;;;4.75;2.83;;;6.40;90.90;;;;;;4973464;28;20030;-70
2022/10/12 05:26:40;;;;;;;5.72;2.38;;;6.30;90.70;;;;;;4977435;28;20062;-71
2022/10/12 05:29:06;;;;;;;4.55;1.92;;;6.30;90.70;;;;;;4979714;28;20042;-70
2022/10/12 05:31:31;;;;;;;5.20;2.08;;;6.20;91.10;;;;;;4977848;28;20031;-70
2022/10/12 05:33:57;;;;;;;5.45;2.25;;;6.10;91.50;;;;;;4978549;28;20649;-70
2022/10/12 05:36:23;;;;;;;6.22;2.30;;;6.10;92.00;;;;;;4975772;28;20026;-70
2022/10/12 05:38:49;;;;;;;5.43;3.22;;;6.10;92.10;;;;;;4979649;28;20489;-70
2022/10/12 05:41:14;;;;;;;6.47;2.72;;;6.20;92.20;;;;;;4976473;28;20043;-70
2022/10/12 05:43:40;;;;;;;2.75;2.00;;;6.20;92.50;;;;;;4975517;28;20045;-70
2022/10/12 05:46:06;;;;;;;6.03;2.70;;;6.20;92.70;;;;;;4974931;28;20054;-70
2022/10/12 05:48:32;;;;;;;5.97;2.47;;;6.20;92.80;;;;;;4972298;28;20517;-69
2022/10/12 05:50:57;;;;;;;32.08;6.00;;;6.20;92.80;;;;;;4964843;28;20141;-70
2022/10/12 05:53:23;;;;;;;20.52;4.50;;;6.30;93.00;;;;;;4979297;28;20747;-71
2022/10/12 05:56:07;;;;;;;22.23;4.75;;;6.30;92.80;;;;;;4973121;28;20682;-71
2022/10/12 05:58:33;;;;;;;20.13;4.25;;;6.30;92.40;;;;;;4973262;28;20084;-70
2022/10/12 06:01:10;;;;;;;10.52;4.15;;;6.30;92.30;;;;;;4976537;28;20030;-70
2022/10/12 06:03:36;;;;;;;16.50;4.35;;;6.30;92.60;;;;;;4968891;28;20027;-70
2022/10/12 06:06:03;;;;;;;29.08;5.18;;;6.30;92.60;;;;;;4976406;28;20747;-71
2022/10/12 06:08:30;;;;;;;17.38;4.30;;;6.40;92.60;;;;;;4979378;28;20049;-70
2022/10/12 06:10:55;;;;;;;21.30;4.45;;;6.40;92.40;;;;;;4971583;28;20135;-70
2022/10/12 06:13:21;;;;;;;16.58;4.28;;;6.40;92.30;;;;;;4977125;28;20206;-70
2022/10/12 06:15:47;;;;;;;14.98;4.13;;;6.50;92.40;;;;;;4976677;28;20026;-70
2022/10/12 06:18:15;;;;;;;22.83;4.75;;;6.40;92.60;;;;;;4968975;28;20116;-70
2022/10/12 06:20:48;;;;;;;9.73;3.97;;;6.50;92.90;;;;;;4974056;28;20034;-70
2022/10/12 06:23:14;;;;;;;9.02;3.20;;;6.50;93.00;;;;;;4959264;28;20034;-70
2022/10/12 06:25:40;;;;;;;10.98;3.42;;;6.60;93.00;;;;;;4972784;28;20085;-69
2022/10/12 06:28:06;;;;;;;8.27;3.15;;;6.60;92.80;;;;;;4976171;28;20037;-70
2022/10/12 06:30:32;;;;;;;16.25;4.78;;;6.60;92.70;;;;;;4976767;28;20498;-70
2022/10/12 06:32:57;;;;;;;10.82;4.30;;;6.70;92.70;;;;;;4969327;28;20034;-70
2022/10/12 06:35:23;;;;;;;8.90;4.18;;;6.80;92.50;;;;;;4978750;28;20482;-70
2022/10/12 06:37:50;;;;;;;8.70;3.05;;;6.80;92.40;;;;;;4969240;28;20030;-70
2022/10/12 06:40:17;;;;;;;10.52;3.47;;;6.90;92.30;;;;;;4977814;28;20554;-70
2022/10/12 06:42:42;;;;;;;6.13;2.78;;;7.00;92.40;;;;;;4975414;28;20026;-70
2022/10/12 06:45:09;;;;;;;4.18;3.08;;;7.00;92.60;;;;;;4972791;28;20035;-70
2022/10/12 06:47:34;;;;;;;7.07;2.55;;;7.10;93.00;;;;;;4970434;28;20073;-70
2022/10/12 06:50:00;;;;;;;5.30;2.25;;;7.20;93.20;;;;;;4972167;28;20162;-69
2022/10/12 06:52:26;;;;;;;6.05;2.40;;;7.30;93.20;;;;;;4968610;28;20031;-70
2022/10/12 06:54:51;;;;;;;7.13;2.33;;;7.40;93.30;;;;;;4972641;28;20049;-70
2022/10/12 06:57:17;;;;;;;6.95;2.90;;;7.50;93.50;;;;;;4974325;28;20066;-70
2022/10/12 06:59:43;;;;;;;6.18;2.70;;;7.70;93.70;;;;;;4970972;28;20038;-70
2022/10/12 07:02:10;;;;;;;5.65;2.80;;;7.80;93.70;;;;;;4973179;28;20172;-70
2022/10/12 07:04:36;;;;;;;6.50;2.97;;;7.90;93.80;;;;;;4977846;28;20558;-70
2022/10/12 07:07:02;;;;;;;10.13;3.30;;;8.00;93.90;;;;;;4978319;28;20042;-70
2022/10/12 07:09:28;;;;;;;6.97;2.90;;;8.10;94.00;;;;;;4968490;28;20089;-70
2022/10/12 07:11:54;;;;;;;5.65;2.70;;;8.30;94.10;;;;;;4971783;28;20035;-70
2022/10/12 07:14:19;;;;;;;6.40;2.80;;;8.40;94.10;;;;;;4969535;28;20038;-70
2022/10/12 07:16:46;;;;;;;4.68;2.53;;;8.50;94.10;;;;;;4972249;28;20038;-70
2022/10/12 07:19:11;;;;;;;5.72;2.75;;;8.60;94.20;;;;;;4974588;28;20034;-70
2022/10/12 07:21:37;;;;;;;5.20;2.42;;;8.70;94.20;;;;;;4972296;28;20445;-70
2022/10/12 07:24:03;;;;;;;5.75;2.88;;;8.70;94.10;;;;;;4974196;28;20042;-70
2022/10/12 07:26:30;;;;;;;10.88;3.10;;;8.80;94.20;;;;;;4975440;28;20034;-71
2022/10/12 07:28:56;;;;;;;4.97;2.78;;;8.90;94.30;;;;;;4975974;28;20482;-70
2022/10/12 07:31:23;;;;;;;4.88;2.75;;;8.90;94.30;;;;;;4976802;28;20130;-70
2022/10/12 07:33:48;;;;;;;7.90;2.83;;;9.00;94.20;;;;;;4974014;28;20557;-71
2022/10/12 07:36:14;;;;;;;9.00;2.75;;;9.10;94.30;;;;;;4974845;28;20034;-70
2022/10/12 07:38:43;;;;;;;7.25;2.80;;;9.20;94.20;;;;;;4976930;28;20034;-70
2022/10/12 07:41:10;;;;;;;11.52;3.05;;;9.30;94.10;;;;;;4979126;28;20038;-69
2022/10/12 07:43:35;;;;;;;8.35;2.50;;;9.50;94.00;;;;;;4979021;28;20030;-70
2022/10/12 07:46:03;;;;;;;6.95;2.30;;;9.50;93.90;;;;;;4977551;28;20568;-70
2022/10/12 07:48:28;;;;;;;8.23;2.42;;;9.60;93.80;;;;;;4958367;28;20410;-70
2022/10/12 07:50:54;;;;;;;5.80;2.40;;;9.70;93.60;;;;;;4971139;28;20049;-70
2022/10/12 07:53:20;;;;;;;9.38;2.95;;;9.80;93.50;;;;;;4976873;28;20105;-70
2022/10/12 07:55:46;;;;;;;6.25;2.15;;;9.90;93.30;;;;;;4975511;28;20023;-71
2022/10/12 07:58:12;;;;;;;8.27;2.05;;;10.00;93.30;;;;;;4973458;28;20471;-70
2022/10/12 08:00:38;;;;;;;7.60;1.80;;;10.10;93.20;;;;;;4972149;28;20093;-70
2022/10/12 08:03:04;;;;;;;6.15;1.98;;;10.20;93.00;;;;;;4977605;28;20030;-70
2022/10/12 08:05:30;;;;;;;11.27;2.45;;;10.30;92.70;;;;;;4980265;28;20034;-70
2022/10/12 08:07:56;;;;;;;6.00;1.90;;;10.50;92.20;;;;;;4973528;28;20045;-71
2022/10/12 08:10:22;;;;;;;7.00;2.20;;;10.60;92.10;;;;;;4976428;28;20069;-70
2022/10/12 08:12:47;;;;;;;6.18;1.67;;;10.70;91.00;;;;;;4978304;28;20023;-70
2022/10/12 08:15:14;;;;;;;7.47;2.80;;;10.70;91.10;;;;;;4979577;28;20030;-70
2022/10/12 08:17:39;;;;;;;9.95;1.90;;;10.80;91.10;;;;;;4978304;28;20144;-70
2022/10/12 08:20:06;;;;;;;5.35;1.88;;;10.90;91.10;;;;;;4974830;28;20151;-70
2022/10/12 08:22:32;;;;;;;8.70;2.28;;;11.00;91.10;;;;;;4975420;28;20037;-69
2022/10/12 08:24:57;;;;;;;8.20;2.88;;;11.10;91.10;;;;;;4975965;28;20767;-69
2022/10/12 08:27:23;;;;;;;7.15;2.33;;;11.20;91.10;;;;;;4972279;28;20030;-73
2022/10/12 08:29:49;;;;;;;9.20;2.45;;;11.30;91.20;;;;;;4965477;28;20042;-69
2022/10/12 08:32:15;;;;;;;5.05;1.95;;;11.50;91.00;;;;;;4975347;28;20109;-70
2022/10/12 08:34:40;;;;;;;9.55;2.40;;;11.70;91.00;;;;;;4968671;28;20816;-70
2022/10/12 08:37:06;;;;;;;5.47;2.03;;;11.80;90.40;;;;;;4971961;28;20030;-70
2022/10/12 08:39:32;;;;;;;6.43;2.00;;;11.90;90.20;;;;;;4975303;28;20138;-70
2022/10/12 08:41:58;;;;;;;5.80;2.33;;;11.90;90.30;;;;;;4978220;28;20041;-65
2022/10/12 08:44:37;;;;;;;7.63;2.30;;;12.10;90.40;;;;;;4974022;28;20167;-64
2022/10/12 08:47:19;;;;;;;7.97;2.30;;;12.30;89.80;;;;;;4977689;28;20023;-63
2022/10/12 08:49:47;;;;;;;8.32;2.47;;;12.50;89.30;;;;;;4969309;28;20043;-64
2022/10/12 08:52:32;;;;;;;11.25;2.33;;;12.60;89.40;;;;;;4972871;28;20124;-64
2022/10/12 08:55:14;;;;;;;9.40;2.80;;;12.90;88.40;;;;;;4977375;28;20112;-64
2022/10/12 08:57:40;;;;;;;10.90;2.53;;;13.10;87.80;;;;;;4972193;28;20029;-70
2022/10/12 09:00:13;;;;;;;5.68;2.30;;;13.30;86.70;;;;;;4979074;28;20045;-70
2022/10/12 09:03:23;;;;;;;4.80;1.88;;;13.60;86.50;;;;;;4979729;28;20088;-70
2022/10/12 09:06:00;;;;;;;6.95;1.70;;;14.30;84.10;;;;;;4971644;28;20507;-72
2022/10/12 09:08:54;;;;;;;4.50;1.55;;;14.80;81.00;;;;;;4976931;28;20051;-71
2022/10/12 09:11:44;;;;;;;5.47;2.00;;;14.90;80.20;;;;;;4968449;28;20045;-71
2022/10/12 09:14:18;;;;;;;7.95;2.15;;;14.80;79.30;;;;;;4969996;28;20339;-71
2022/10/12 09:16:48;;;;;;;7.20;1.73;;;14.70;80.50;;;;;;4980183;28;20081;-65
2022/10/12 09:19:37;;;;;;;8.95;1.88;;;14.80;80.70;;;;;;4977062;28;20031;-72
2022/10/12 09:22:05;;;;;;;10.50;1.65;;;14.80;79.70;;;;;;4972535;28;20034;-68
2022/10/12 09:24:35;;;;;;;9.25;1.95;;;14.90;79.00;;;;;;4979416;28;20121;-71
2022/10/12 09:27:13;;;;;;;9.02;1.50;;;14.90;75.10;;;;;;4968945;28;20069;-66
2022/10/12 09:29:49;;;;;;;11.38;1.90;;;15.00;74.10;;;;;;4971144;28;20058;-70
2022/10/12 09:32:56;;;;;;;6.15;1.55;;;15.00;74.00;;;;;;4973584;28;20065;-72
2022/10/12 09:35:22;;;;;;;9.85;1.67;;;15.00;71.70;;;;;;4954360;28;20387;-63
2022/10/12 09:37:52;;;;;;;9.55;1.23;;;15.00;72.60;;;;;;4976198;28;20074;-64
2022/10/12 09:40:30;;;;;;;7.22;1.70;;;15.00;72.80;;;;;;4973998;28;20508;-69
2022/10/12 09:43:01;;;;;;;5.95;1.20;;;15.10;73.80;;;;;;4969438;28;20104;-73
2022/10/12 09:45:31;;;;;;;6.38;1.23;;;15.20;71.90;;;;;;4974002;28;20045;-64
2022/10/12 09:48:23;;;;;;;4.57;1.30;;;15.70;71.80;;;;;;4969015;28;20053;-71
2022/10/12 09:51:01;;;;;;;9.40;1.63;;;16.50;69.80;;;;;;4968929;28;20863;-64
2022/10/12 09:53:31;;;;;;;4.43;1.45;;;16.80;66.90;;;;;;4956037;28;20035;-64
2022/10/12 09:56:02;;;;;;;6.22;1.38;;;16.80;67.50;;;;;;4974669;28;20019;-66
2022/10/12 09:58:32;;;;;;;5.80;1.30;;;16.70;67.40;;;;;;4973349;28;20433;-65
2022/10/12 10:01:26;;;;;;;5.97;1.50;;;16.70;66.30;;;;;;4976645;28;20044;-64
2022/10/12 10:04:10;;;;;;;6.70;1.30;;;16.80;65.80;;;;;;4969102;28;20034;-65
2022/10/12 10:06:42;;;;;;;2.10;1.05;;;17.90;64.40;;;;;;4969676;28;20141;-70
2022/10/12 10:09:32;;;;;;;3.88;1.63;;;19.80;59.10;;;;;;4973175;28;20117;-70
2022/10/12 10:12:11;;;;;;;7.13;1.20;;;21.90;51.10;;;;;;4973147;28;20916;-71
2022/10/12 10:14:37;;;;;;;6.47;1.60;;;23.70;47.50;;;;;;4976508;28;20041;-71
2022/10/12 10:17:03;;;;;;;9.30;1.70;;;24.40;44.20;;;;;;4976412;28;20027;-71
2022/10/12 10:19:28;;;;;;;7.28;1.67;;;24.40;44.10;;;;;;4975851;28;20030;-70
2022/10/12 10:21:54;;;;;;;7.75;1.27;;;24.70;43.90;;;;;;4972970;28;20041;-70
2022/10/12 10:24:27;;;;;;;5.63;1.35;;;25.00;42.40;;;;;;4968354;28;20101;-70
2022/10/12 10:27:02;;;;;;;5.05;1.63;;;25.70;41.40;;;;;;4966665;28;20031;-71
2022/10/12 10:29:31;;;;;;;7.60;1.83;;;26.50;40.00;;;;;;4972844;28;20034;-70
2022/10/12 10:32:23;;;;;;;8.27;1.50;;;26.80;39.70;;;;;;4972566;28;20137;-66
2022/10/12 10:35:12;;;;;;;6.72;1.50;;;26.50;39.00;;;;;;4969242;28;20073;-65
2022/10/12 10:37:50;;;;;;;4.82;1.20;;;26.70;39.50;;;;;;4960770;28;20189;-66
2022/10/12 10:40:28;;;;;;;4.35;1.13;;;27.00;37.60;;;;;;4975100;28;20654;-72
2022/10/12 10:43:00;;;;;;;6.00;1.33;;;27.10;37.90;;;;;;4969652;28;20049;-72
2022/10/12 10:45:31;;;;;;;7.10;1.33;;;27.50;36.80;;;;;;4969346;28;20034;-75
2022/10/12 10:48:00;;;;;;;6.25;1.30;;;27.80;35.90;;;;;;4935171;28;20034;-68
2022/10/12 10:50:37;;;;;;;2.67;1.00;;;27.50;36.60;;;;;;4969854;28;20034;-66
2022/10/12 10:53:18;;;;;;;7.82;1.30;;;27.60;37.30;;;;;;4974991;28;20084;-66
2022/10/12 10:55:49;;;;;;;7.68;1.60;;;27.40;36.10;;;;;;4971092;28;20027;-64
2022/10/12 10:58:24;;;;;;;9.55;1.55;;;26.10;38.00;;;;;;4972416;28;20022;-64
2022/10/12 11:00:54;;;;;;;7.55;1.25;;;24.30;40.50;;;;;;4975202;28;20035;-65
2022/10/12 11:03:26;;;;;;;4.90;1.25;;;22.60;44.90;;;;;;4972215;28;20034;-64
2022/10/12 11:06:03;;;;;;;6.82;1.77;;;21.40;47.60;;;;;;4972610;28;20065;-65
2022/10/12 11:08:34;;;;;;;8.55;1.50;;;20.50;49.20;;;;;;4974911;28;20034;-64
2022/10/12 11:11:05;;;;;;;3.63;1.10;;;19.80;51.20;;;;;;4973057;28;20065;-66
2022/10/12 11:13:52;;;;;;;7.75;1.50;;;19.20;52.10;;;;;;4977644;28;20027;-68
2022/10/12 11:16:24;;;;;;;5.70;1.25;;;18.90;53.00;;;;;;4982736;28;20466;-72
2022/10/12 11:18:59;;;;;;;3.92;1.10;;;18.70;52.10;;;;;;4977552;28;20076;-66
2022/10/12 11:22:02;;;;;;;5.40;1.30;;;18.30;53.80;;;;;;4975928;28;20049;-66
2022/10/12 11:24:51;;;;;;;6.75;1.63;;;18.10;55.10;;;;;;4973804;28;20393;-65
2022/10/12 11:27:20;;;;;;;6.90;1.10;;;18.00;55.40;;;;;;4981066;28;20970;-65
2022/10/12 11:29:46;;;;;;;11.82;1.92;;;18.00;56.00;;;;;;4980357;28;20545;-66
2022/10/12 11:32:24;;;;;;;4.40;1.00;;;18.00;55.20;;;;;;4977656;28;20034;-66
2022/10/12 11:34:57;;;;;;;3.47;1.48;;;18.10;55.50;;;;;;4979390;28;20132;-66
2022/10/12 11:37:50;;;;;;;9.10;1.38;;;18.00;55.50;;;;;;4975332;28;20435;-65
2022/10/12 11:40:35;;;;;;;7.30;2.25;;;18.00;55.50;;;;;;4962604;28;20057;-66
2022/10/12 11:43:06;;;;;;;6.10;1.75;;;18.10;55.80;;;;;;4970973;28;20074;-66
2022/10/12 11:45:46;;;;;;;6.72;1.77;;;18.10;54.90;;;;;;4976731;28;20030;-65
2022/10/12 11:48:30;;;;;;;5.60;1.38;;;18.10;55.90;;;;;;4978590;28;20057;-66
2022/10/12 11:50:57;;;;;;;9.65;1.45;;;18.00;54.90;;;;;;4980257;28;20481;-67
2022/10/12 11:53:38;;;;;;;6.10;1.52;;;18.10;54.70;;;;;;4972236;28;20050;-66
2022/10/12 11:56:19;;;;;;;9.02;1.45;;;18.10;55.10;;;;;;4974286;28;20081;-66
2022/10/12 11:58:47;;;;;;;7.05;1.13;;;18.20;54.90;;;;;;4970137;28;20035;-69
2022/10/12 12:01:50;;;;;;;4.65;1.27;;;18.20;55.70;;;;;;4982737;28;20569;-65
2022/10/12 12:04:21;;;;;;;4.97;1.55;;;18.30;55.50;;;;;;4979675;28;20113;-65
2022/10/12 12:06:52;;;;;;;6.20;1.83;;;18.20;55.20;;;;;;4972947;28;20076;-65
2022/10/12 12:09:20;;;;;;;9.10;2.03;;;18.20;54.60;;;;;;4981695;28;20037;-65
2022/10/12 12:11:46;;;;;;;7.25;1.73;;;18.10;55.00;;;;;;4978606;28;20041;-65
2022/10/12 12:14:24;;;;;;;10.73;2.13;;;18.00;55.50;;;;;;4970962;28;20689;-65
2022/10/12 12:17:09;;;;;;;7.38;1.90;;;18.00;56.40;;;;;;4976524;28;20563;-65
2022/10/12 12:19:36;;;;;;;5.40;1.88;;;18.00;57.00;;;;;;4973371;28;20058;-64
2022/10/12 12:22:22;;;;;;;4.63;1.73;;;17.90;56.40;;;;;;4973589;28;20141;-65
2022/10/12 12:25:03;;;;;;;8.13;1.70;;;17.70;56.30;;;;;;4976912;28;20517;-66
2022/10/12 12:27:48;;;;;;;9.93;2.08;;;17.70;57.20;;;;;;4973549;28;20494;-64
2022/10/12 12:30:16;;;;;;;7.97;1.77;;;17.60;56.90;;;;;;4971112;28;20054;-65
2022/10/12 12:32:50;;;;;;;5.70;1.40;;;17.60;56.30;;;;;;4978202;28;20041;-65
2022/10/12 12:35:26;;;;;;;6.20;1.70;;;17.60;56.90;;;;;;4975851;28;20129;-66
2022/10/12 12:38:03;;;;;;;8.32;2.97;;;17.60;57.00;;;;;;4978703;28;20030;-66
2022/10/12 12:40:29;;;;;;;8.38;1.08;;;17.60;56.90;;;;;;4971429;28;20668;-64
2022/10/12 12:43:19;;;;;;;4.80;1.40;;;17.60;56.20;;;;;;4979762;28;20049;-64
2022/10/12 12:46:10;;;;;;;6.63;1.48;;;17.60;56.30;;;;;;4965303;28;20066;-65
2022/10/12 12:48:41;;;;;;;3.75;1.15;;;17.50;56.80;;;;;;4977412;28;20693;-70
2022/10/12 12:51:23;;;;;;;5.55;1.20;;;17.50;56.40;;;;;;4976594;28;20322;-72
2022/10/12 12:54:00;;;;;;;4.32;1.02;;;17.50;56.60;;;;;;4976908;28;20034;-69
2022/10/12 12:56:44;;;;;;;5.15;1.17;;;17.60;56.90;;;;;;4958711;28;20038;-65
2022/10/12 12:59:47;;;;;;;9.02;2.08;;;17.60;56.90;;;;;;4974382;28;20030;-63
2022/10/12 13:02:44;;;;;;;6.88;1.77;;;17.60;56.90;;;;;;4978695;28;20845;-71
2022/10/12 13:05:25;;;;;;;;;;;17.50;56.80;;;;;;4970652;28;20031;-71
2022/10/12 13:08:09;;;;;;;4.50;1.30;;;17.50;56.60;;;;;;4972555;28;19968;-73
2022/10/12 13:11:16;;;;;;;5.15;1.15;;;17.50;57.40;;;;;;4973270;28;20459;-70
2022/10/12 13:13:51;;;;;;;3.50;0.82;;;17.60;57.50;;;;;;4965084;28;20035;-70
2022/10/12 13:16:35;;;;;;;8.77;2.55;;;17.60;57.20;;;;;;4972949;28;20117;-73